sensor_id;sensor_type;location;lat;lon;timestamp;temperature;humidity
5154;DHT22;2595;53.584;10.084;2022-10-16T00:01:25;15.80;99.90
5154;DHT22;2595;53.584;10.084;2022-10-16T00:03:51;15.80;99.90
5154;DHT22;2595;53.584;10.084;2022-10-16T00:06:19;15.80;99.90
5154;DHT22;2595;53.584;10.084;2022-10-16T00:08:46;15.70;99.90
5154;DHT22;2595;53.584;10.084;2022-10-16T00:11:12;15.70;99.90
5154;DHT22;2595;53.584;10.084;2022-10-16T00:13:40;15.70;99.90
5154;DHT22;2595;53.584;10.084;2022-10-16T00:16:06;15.70;99.90
5154;DHT22;2595;53.584;10.084;2022-10-16T00:18:33;15.70;99.90
5154;DHT22;2595;53.584;10.084;2022-10-16T00:21:06;15.70;99.90
5154;DHT22;2595;53.584;10.084;2022-10-16T00:23:33;15.60;99.90
5154;DHT22;2595;53.584;10.084;2022-10-16T00:26:01;15.60;99.90
5154;DHT22;2595;53.584;10.084;2022-10-16T00:28:27;15.60;99.90
5154;DHT22;2595;53.584;10.084;2022-10-16T00:30:53;15.60;99.90
5154;DHT22;2595;53.584;10.084;2022-10-16T00:33:19;15.60;99.90
5154;DHT22;2595;53.584;10.084;2022-10-16T00:35:44;15.60;99.90
5154;DHT22;2595;53.584;10.084;2022-10-16T00:38:10;15.60;99.90
5154;DHT22;2595;53.584;10.084;2022-10-16T00:40:36;15.60;99.90
5154;DHT22;2595;53.584;10.084;2022-10-16T00:43:07;15.60;99.90
5154;DHT22;2595;53.584;10.084;2022-10-16T00:45:35;15.60;99.90
5154;DHT22;2595;53.584;10.084;2022-10-16T00:48:00;15.60;99.90
5154;DHT22;2595;53.584;10.084;2022-10-16T00:50:31;15.60;99.90
5154;DHT22;2595;53.584;10.084;2022-10-16T00:52:58;15.60;99.90
5154;DHT22;2595;53.584;10.084;2022-10-16T00:55:26;15.60;99.90
5154;DHT22;2595;53.584;10.084;2022-10-16T00:57:54;15.60;99.90
5154;DHT22;2595;53.584;10.084;2022-10-16T01:00:22;15.60;99.90
5154;DHT22;2595;53.584;10.084;2022-10-16T01:03:00;15.60;99.90
5154;DHT22;2595;53.584;10.084;2022-10-16T01:05:34;15.60;99.90
5154;DHT22;2595;53.584;10.084;2022-10-16T01:08:06;15.60;99.90
5154;DHT22;2595;53.584;10.084;2022-10-16T01:10:44;15.60;99.90
5154;DHT22;2595;53.584;10.084;2022-10-16T01:13:23;15.70;99.90
5154;DHT22;2595;53.584;10.084;2022-10-16T01:15:58;15.60;99.90
5154;DHT22;2595;53.584;10.084;2022-10-16T01:18:38;15.60;99.90
5154;DHT22;2595;53.584;10.084;2022-10-16T01:21:18;15.60;99.90
5154;DHT22;2595;53.584;10.084;2022-10-16T01:26:28;15.50;99.90
5154;DHT22;2595;53.584;10.084;2022-10-16T01:29:11;15.50;99.90
5154;DHT22;2595;53.584;10.084;2022-10-16T01:31:41;15.40;99.90
5154;DHT22;2595;53.584;10.084;2022-10-16T01:34:15;15.40;99.90
5154;DHT22;2595;53.584;10.084;2022-10-16T01:36:52;15.40;99.90
5154;DHT22;2595;53.584;10.084;2022-10-16T01:39:21;15.40;99.90
5154;DHT22;2595;53.584;10.084;2022-10-16T01:42:13;15.40;99.90
5154;DHT22;2595;53.584;10.084;2022-10-16T01:44:41;15.30;99.90
5154;DHT22;2595;53.584;10.084;2022-10-16T01:47:09;15.30;99.90
5154;DHT22;2595;53.584;10.084;2022-10-16T01:49:37;15.30;99.90
5154;DHT22;2595;53.584;10.084;2022-10-16T01:52:07;15.30;99.90
5154;DHT22;2595;53.584;10.084;2022-10-16T01:54:35;15.30;99.90
5154;DHT22;2595;53.584;10.084;2022-10-16T01:57:04;15.30;99.90
5154;DHT22;2595;53.584;10.084;2022-10-16T01:59:35;15.30;99.90
5154;DHT22;2595;53.584;10.084;2022-10-16T02:02:06;15.30;99.90
5154;DHT22;2595;53.584;10.084;2022-10-16T02:04:42;15.20;99.90
5154;DHT22;2595;53.584;10.084;2022-10-16T02:07:08;15.20;99.90
5154;DHT22;2595;53.584;10.084;2022-10-16T02:09:35;15.30;99.90
5154;DHT22;2595;53.584;10.084;2022-10-16T02:12:08;15.20;99.90
5154;DHT22;2595;53.584;10.084;2022-10-16T02:14:38;15.20;99.90
5154;DHT22;2595;53.584;10.084;2022-10-16T02:17:15;15.20;99.90
5154;DHT22;2595;53.584;10.084;2022-10-16T02:19:42;15.20;99.90
5154;DHT22;2595;53.584;10.084;2022-10-16T02:22:12;15.20;99.90
5154;DHT22;2595;53.584;10.084;2022-10-16T02:32:48;15.20;99.90
5154;DHT22;2595;53.584;10.084;2022-10-16T02:35:17;15.20;99.90
5154;DHT22;2595;53.584;10.084;2022-10-16T02:37:44;15.20;99.90
5154;DHT22;2595;53.584;10.084;2022-10-16T02:40:11;15.20;99.90
5154;DHT22;2595;53.584;10.084;2022-10-16T02:42:39;15.10;99.90
5154;DHT22;2595;53.584;10.084;2022-10-16T02:45:09;15.10;99.90
5154;DHT22;2595;53.584;10.084;2022-10-16T02:47:35;15.10;99.90
5154;DHT22;2595;53.584;10.084;2022-10-16T02:50:01;15.10;99.90
5154;DHT22;2595;53.584;10.084;2022-10-16T02:52:27;15.10;99.90
5154;DHT22;2595;53.584;10.084;2022-10-16T02:54:52;15.10;99.90
5154;DHT22;2595;53.584;10.084;2022-10-16T02:57:18;15.00;99.90
5154;DHT22;2595;53.584;10.084;2022-10-16T02:59:44;15.10;99.90
5154;DHT22;2595;53.584;10.084;2022-10-16T03:02:10;15.10;99.90
5154;DHT22;2595;53.584;10.084;2022-10-16T03:04:36;15.10;99.90
5154;DHT22;2595;53.584;10.084;2022-10-16T03:07:02;15.00;99.90
5154;DHT22;2595;53.584;10.084;2022-10-16T03:09:28;15.00;99.90
5154;DHT22;2595;53.584;10.084;2022-10-16T03:11:53;15.00;99.90
5154;DHT22;2595;53.584;10.084;2022-10-16T03:14:19;15.00;99.90
5154;DHT22;2595;53.584;10.084;2022-10-16T03:16:44;15.00;99.90
5154;DHT22;2595;53.584;10.084;2022-10-16T03:19:10;15.00;99.90
5154;DHT22;2595;53.584;10.084;2022-10-16T03:21:35;15.00;99.90
5154;DHT22;2595;53.584;10.084;2022-10-16T03:24:01;14.90;99.90
5154;DHT22;2595;53.584;10.084;2022-10-16T03:26:27;14.90;99.90
5154;DHT22;2595;53.584;10.084;2022-10-16T03:28:52;14.90;99.90
5154;DHT22;2595;53.584;10.084;2022-10-16T03:31:18;14.90;99.90
5154;DHT22;2595;53.584;10.084;2022-10-16T03:33:43;14.80;99.90
5154;DHT22;2595;53.584;10.084;2022-10-16T03:36:09;14.80;99.90
5154;DHT22;2595;53.584;10.084;2022-10-16T03:38:34;14.80;99.90
5154;DHT22;2595;53.584;10.084;2022-10-16T03:41:00;14.70;99.90
5154;DHT22;2595;53.584;10.084;2022-10-16T03:43:26;14.70;99.90
5154;DHT22;2595;53.584;10.084;2022-10-16T03:45:51;14.70;99.90
5154;DHT22;2595;53.584;10.084;2022-10-16T03:48:18;14.70;99.90
5154;DHT22;2595;53.584;10.084;2022-10-16T03:50:44;14.70;99.90
5154;DHT22;2595;53.584;10.084;2022-10-16T03:53:09;14.70;99.90
5154;DHT22;2595;53.584;10.084;2022-10-16T03:55:35;14.60;99.90
5154;DHT22;2595;53.584;10.084;2022-10-16T03:58:01;14.60;99.90
5154;DHT22;2595;53.584;10.084;2022-10-16T04:00:26;14.60;99.90
5154;DHT22;2595;53.584;10.084;2022-10-16T04:02:52;14.50;99.90
5154;DHT22;2595;53.584;10.084;2022-10-16T04:05:18;14.50;99.90
5154;DHT22;2595;53.584;10.084;2022-10-16T04:07:43;14.50;99.90
5154;DHT22;2595;53.584;10.084;2022-10-16T04:10:09;14.50;99.90
5154;DHT22;2595;53.584;10.084;2022-10-16T04:12:35;14.50;99.90
5154;DHT22;2595;53.584;10.084;2022-10-16T04:15:01;14.40;99.90
5154;DHT22;2595;53.584;10.084;2022-10-16T04:17:26;14.40;99.90
5154;DHT22;2595;53.584;10.084;2022-10-16T04:19:52;14.40;99.90
5154;DHT22;2595;53.584;10.084;2022-10-16T04:22:17;14.40;99.90
5154;DHT22;2595;53.584;10.084;2022-10-16T04:24:43;14.40;99.90
5154;DHT22;2595;53.584;10.084;2022-10-16T04:27:08;14.40;99.90
5154;DHT22;2595;53.584;10.084;2022-10-16T04:29:34;14.40;99.90
5154;DHT22;2595;53.584;10.084;2022-10-16T04:31:59;14.40;99.90
5154;DHT22;2595;53.584;10.084;2022-10-16T04:34:25;14.40;99.90
5154;DHT22;2595;53.584;10.084;2022-10-16T04:36:51;14.40;99.90
5154;DHT22;2595;53.584;10.084;2022-10-16T04:39:16;14.40;99.90
5154;DHT22;2595;53.584;10.084;2022-10-16T04:41:42;14.40;99.90
5154;DHT22;2595;53.584;10.084;2022-10-16T04:44:08;14.40;99.90
5154;DHT22;2595;53.584;10.084;2022-10-16T04:46:33;14.40;99.90
5154;DHT22;2595;53.584;10.084;2022-10-16T04:48:59;14.40;99.90
5154;DHT22;2595;53.584;10.084;2022-10-16T04:51:25;14.40;99.90
5154;DHT22;2595;53.584;10.084;2022-10-16T04:53:51;14.40;99.90
5154;DHT22;2595;53.584;10.084;2022-10-16T04:56:17;14.30;99.90
5154;DHT22;2595;53.584;10.084;2022-10-16T04:58:42;14.30;99.90
5154;DHT22;2595;53.584;10.084;2022-10-16T05:01:08;14.40;99.90
5154;DHT22;2595;53.584;10.084;2022-10-16T05:03:34;14.40;99.90
5154;DHT22;2595;53.584;10.084;2022-10-16T05:05:59;14.30;99.90
5154;DHT22;2595;53.584;10.084;2022-10-16T05:08:25;14.40;99.90
5154;DHT22;2595;53.584;10.084;2022-10-16T05:10:50;14.30;99.90
5154;DHT22;2595;53.584;10.084;2022-10-16T05:13:16;14.30;99.90
5154;DHT22;2595;53.584;10.084;2022-10-16T05:15:42;14.30;99.90
5154;DHT22;2595;53.584;10.084;2022-10-16T05:18:08;14.40;99.90
5154;DHT22;2595;53.584;10.084;2022-10-16T05:20:34;14.40;99.90
5154;DHT22;2595;53.584;10.084;2022-10-16T05:22:59;14.40;99.90
5154;DHT22;2595;53.584;10.084;2022-10-16T05:25:25;14.30;99.90
5154;DHT22;2595;53.584;10.084;2022-10-16T05:27:51;14.30;99.90
5154;DHT22;2595;53.584;10.084;2022-10-16T05:30:17;14.30;99.90
5154;DHT22;2595;53.584;10.084;2022-10-16T05:32:48;14.30;99.90
5154;DHT22;2595;53.584;10.084;2022-10-16T05:35:14;14.30;99.90
5154;DHT22;2595;53.584;10.084;2022-10-16T05:37:40;14.30;99.90
5154;DHT22;2595;53.584;10.084;2022-10-16T05:40:06;14.30;99.90
5154;DHT22;2595;53.584;10.084;2022-10-16T05:42:32;14.20;99.90
5154;DHT22;2595;53.584;10.084;2022-10-16T05:44:57;14.20;99.90
5154;DHT22;2595;53.584;10.084;2022-10-16T05:47:23;14.20;99.90
5154;DHT22;2595;53.584;10.084;2022-10-16T05:49:48;14.20;99.90
5154;DHT22;2595;53.584;10.084;2022-10-16T05:52:14;14.20;99.90
5154;DHT22;2595;53.584;10.084;2022-10-16T05:54:39;14.20;99.90
5154;DHT22;2595;53.584;10.084;2022-10-16T05:57:05;14.20;99.90
5154;DHT22;2595;53.584;10.084;2022-10-16T05:59:31;14.30;99.90
5154;DHT22;2595;53.584;10.084;2022-10-16T06:01:57;14.30;99.90
5154;DHT22;2595;53.584;10.084;2022-10-16T06:04:22;14.20;99.90
5154;DHT22;2595;53.584;10.084;2022-10-16T06:06:48;14.20;99.90
5154;DHT22;2595;53.584;10.084;2022-10-16T06:09:14;14.20;99.90
5154;DHT22;2595;53.584;10.084;2022-10-16T06:11:39;14.20;99.90
5154;DHT22;2595;53.584;10.084;2022-10-16T06:14:05;14.20;99.90
5154;DHT22;2595;53.584;10.084;2022-10-16T06:16:37;14.20;99.90
5154;DHT22;2595;53.584;10.084;2022-10-16T06:19:04;14.20;99.90
5154;DHT22;2595;53.584;10.084;2022-10-16T06:21:32;14.20;99.90
5154;DHT22;2595;53.584;10.084;2022-10-16T06:23:58;14.20;99.90
5154;DHT22;2595;53.584;10.084;2022-10-16T06:26:26;14.20;99.90
5154;DHT22;2595;53.584;10.084;2022-10-16T06:28:54;14.20;99.90
5154;DHT22;2595;53.584;10.084;2022-10-16T06:31:20;14.20;99.90
5154;DHT22;2595;53.584;10.084;2022-10-16T06:33:50;14.20;99.90
5154;DHT22;2595;53.584;10.084;2022-10-16T06:36:17;14.20;99.90
5154;DHT22;2595;53.584;10.084;2022-10-16T06:38:43;14.20;99.90
5154;DHT22;2595;53.584;10.084;2022-10-16T06:41:15;14.20;99.90
5154;DHT22;2595;53.584;10.084;2022-10-16T06:43:41;14.30;99.90
5154;DHT22;2595;53.584;10.084;2022-10-16T06:46:10;14.20;99.90
5154;DHT22;2595;53.584;10.084;2022-10-16T06:48:36;14.20;99.90
5154;DHT22;2595;53.584;10.084;2022-10-16T06:51:08;14.20;99.90
5154;DHT22;2595;53.584;10.084;2022-10-16T06:53:36;14.30;99.90
5154;DHT22;2595;53.584;10.084;2022-10-16T06:56:12;14.30;99.90
5154;DHT22;2595;53.584;10.084;2022-10-16T06:58:38;14.30;99.90
5154;DHT22;2595;53.584;10.084;2022-10-16T07:01:05;14.30;99.90
5154;DHT22;2595;53.584;10.084;2022-10-16T07:03:31;14.30;99.90
5154;DHT22;2595;53.584;10.084;2022-10-16T07:05:56;14.30;99.90
5154;DHT22;2595;53.584;10.084;2022-10-16T07:08:22;14.40;99.90
5154;DHT22;2595;53.584;10.084;2022-10-16T07:10:48;14.40;99.90
5154;DHT22;2595;53.584;10.084;2022-10-16T07:13:13;14.40;99.90
5154;DHT22;2595;53.584;10.084;2022-10-16T07:15:40;14.40;99.90
5154;DHT22;2595;53.584;10.084;2022-10-16T07:18:06;14.40;99.90
5154;DHT22;2595;53.584;10.084;2022-10-16T07:20:32;14.50;99.90
5154;DHT22;2595;53.584;10.084;2022-10-16T07:22:57;14.50;99.90
5154;DHT22;2595;53.584;10.084;2022-10-16T07:25:23;14.50;99.90
5154;DHT22;2595;53.584;10.084;2022-10-16T07:27:49;14.60;99.90
5154;DHT22;2595;53.584;10.084;2022-10-16T07:30:14;14.60;99.90
5154;DHT22;2595;53.584;10.084;2022-10-16T07:32:40;14.70;99.90
5154;DHT22;2595;53.584;10.084;2022-10-16T07:35:06;14.70;99.90
5154;DHT22;2595;53.584;10.084;2022-10-16T07:37:32;14.70;99.90
5154;DHT22;2595;53.584;10.084;2022-10-16T07:39:57;14.70;99.90
5154;DHT22;2595;53.584;10.084;2022-10-16T07:42:23;14.70;99.90
5154;DHT22;2595;53.584;10.084;2022-10-16T07:44:49;14.70;99.90
5154;DHT22;2595;53.584;10.084;2022-10-16T07:47:14;14.70;99.90
5154;DHT22;2595;53.584;10.084;2022-10-16T07:49:40;14.70;99.90
5154;DHT22;2595;53.584;10.084;2022-10-16T07:52:05;14.70;99.90
5154;DHT22;2595;53.584;10.084;2022-10-16T07:54:31;14.70;99.90
5154;DHT22;2595;53.584;10.084;2022-10-16T07:56:56;14.80;99.90
5154;DHT22;2595;53.584;10.084;2022-10-16T07:59:22;14.80;99.90
5154;DHT22;2595;53.584;10.084;2022-10-16T08:01:49;14.80;99.90
5154;DHT22;2595;53.584;10.084;2022-10-16T08:04:15;14.90;99.90
5154;DHT22;2595;53.584;10.084;2022-10-16T08:06:41;14.90;99.90
5154;DHT22;2595;53.584;10.084;2022-10-16T08:09:08;15.00;99.90
5154;DHT22;2595;53.584;10.084;2022-10-16T08:11:33;15.00;99.90
5154;DHT22;2595;53.584;10.084;2022-10-16T08:13:59;15.00;99.90
5154;DHT22;2595;53.584;10.084;2022-10-16T08:16:25;15.00;99.90
5154;DHT22;2595;53.584;10.084;2022-10-16T08:18:51;15.00;99.90
5154;DHT22;2595;53.584;10.084;2022-10-16T08:21:19;15.00;99.90
5154;DHT22;2595;53.584;10.084;2022-10-16T08:23:45;15.10;99.90
5154;DHT22;2595;53.584;10.084;2022-10-16T08:26:12;15.10;99.90
5154;DHT22;2595;53.584;10.084;2022-10-16T08:28:38;15.10;99.90
5154;DHT22;2595;53.584;10.084;2022-10-16T08:31:08;15.10;99.90
5154;DHT22;2595;53.584;10.084;2022-10-16T08:33:34;15.20;99.90
5154;DHT22;2595;53.584;10.084;2022-10-16T08:36:01;15.20;99.90
5154;DHT22;2595;53.584;10.084;2022-10-16T08:38:26;15.20;99.90
5154;DHT22;2595;53.584;10.084;2022-10-16T08:40:52;15.20;99.90
5154;DHT22;2595;53.584;10.084;2022-10-16T08:51:01;15.50;99.90
5154;DHT22;2595;53.584;10.084;2022-10-16T08:53:38;15.50;99.90
5154;DHT22;2595;53.584;10.084;2022-10-16T08:56:07;15.50;99.90
5154;DHT22;2595;53.584;10.084;2022-10-16T08:58:32;15.60;99.90
5154;DHT22;2595;53.584;10.084;2022-10-16T09:01:01;15.70;99.90
5154;DHT22;2595;53.584;10.084;2022-10-16T09:09:27;15.80;99.90
5154;DHT22;2595;53.584;10.084;2022-10-16T09:12:04;15.80;99.90
5154;DHT22;2595;53.584;10.084;2022-10-16T09:14:54;15.80;99.90
5154;DHT22;2595;53.584;10.084;2022-10-16T09:17:36;15.80;99.90
5154;DHT22;2595;53.584;10.084;2022-10-16T09:22:40;15.90;99.90
5154;DHT22;2595;53.584;10.084;2022-10-16T09:25:15;15.90;99.90
5154;DHT22;2595;53.584;10.084;2022-10-16T09:27:42;15.90;99.90
5154;DHT22;2595;53.584;10.084;2022-10-16T09:30:20;16.00;99.90
5154;DHT22;2595;53.584;10.084;2022-10-16T09:32:49;16.00;99.90
5154;DHT22;2595;53.584;10.084;2022-10-16T09:35:18;16.00;99.90
5154;DHT22;2595;53.584;10.084;2022-10-16T09:37:47;16.10;99.90
5154;DHT22;2595;53.584;10.084;2022-10-16T09:40:37;16.10;99.90
5154;DHT22;2595;53.584;10.084;2022-10-16T09:45:38;16.20;99.90
5154;DHT22;2595;53.584;10.084;2022-10-16T09:48:11;16.30;99.90
5154;DHT22;2595;53.584;10.084;2022-10-16T09:50:37;16.30;99.90
5154;DHT22;2595;53.584;10.084;2022-10-16T09:53:14;16.30;99.90
5154;DHT22;2595;53.584;10.084;2022-10-16T09:55:53;16.40;99.90
5154;DHT22;2595;53.584;10.084;2022-10-16T09:58:22;16.50;99.90
5154;DHT22;2595;53.584;10.084;2022-10-16T10:00:53;16.60;99.90
5154;DHT22;2595;53.584;10.084;2022-10-16T10:03:39;16.70;99.90
5154;DHT22;2595;53.584;10.084;2022-10-16T10:06:22;16.90;99.90
5154;DHT22;2595;53.584;10.084;2022-10-16T10:11:49;17.50;99.90
5154;DHT22;2595;53.584;10.084;2022-10-16T10:14:28;17.80;99.90
5154;DHT22;2595;53.584;10.084;2022-10-16T10:17:25;18.00;99.90
5154;DHT22;2595;53.584;10.084;2022-10-16T10:22:42;18.30;99.90
5154;DHT22;2595;53.584;10.084;2022-10-16T10:30:45;18.30;99.90
5154;DHT22;2595;53.584;10.084;2022-10-16T11:01:13;18.50;99.90
5154;DHT22;2595;53.584;10.084;2022-10-16T11:06:18;18.40;99.90
5154;DHT22;2595;53.584;10.084;2022-10-16T11:11:34;18.40;99.90
5154;DHT22;2595;53.584;10.084;2022-10-16T11:17:16;18.50;99.90
5154;DHT22;2595;53.584;10.084;2022-10-16T11:22:38;18.50;99.90
5154;DHT22;2595;53.584;10.084;2022-10-16T11:25:16;18.60;99.90
5154;DHT22;2595;53.584;10.084;2022-10-16T11:30:45;18.70;99.90
5154;DHT22;2595;53.584;10.084;2022-10-16T11:36:32;18.70;99.90
5154;DHT22;2595;53.584;10.084;2022-10-16T11:41:48;18.70;99.90
5154;DHT22;2595;53.584;10.084;2022-10-16T11:47:43;18.60;99.90
5154;DHT22;2595;53.584;10.084;2022-10-16T11:55:53;18.40;99.90
5154;DHT22;2595;53.584;10.084;2022-10-16T12:04:18;18.30;99.90
5154;DHT22;2595;53.584;10.084;2022-10-16T12:09:32;18.20;99.90
5154;DHT22;2595;53.584;10.084;2022-10-16T12:11:58;18.10;99.90
5154;DHT22;2595;53.584;10.084;2022-10-16T12:16:55;17.90;99.90
5154;DHT22;2595;53.584;10.084;2022-10-16T12:19:23;17.90;99.90
5154;DHT22;2595;53.584;10.084;2022-10-16T12:21:51;17.80;99.90
5154;DHT22;2595;53.584;10.084;2022-10-16T12:24:27;17.80;99.90
5154;DHT22;2595;53.584;10.084;2022-10-16T12:26:55;17.80;99.90
5154;DHT22;2595;53.584;10.084;2022-10-16T12:31:52;17.80;99.90
5154;DHT22;2595;53.584;10.084;2022-10-16T12:34:27;17.80;99.90
5154;DHT22;2595;53.584;10.084;2022-10-16T12:36:54;17.80;99.90
5154;DHT22;2595;53.584;10.084;2022-10-16T12:39:22;17.70;99.90
5154;DHT22;2595;53.584;10.084;2022-10-16T12:42:01;17.70;99.90
5154;DHT22;2595;53.584;10.084;2022-10-16T12:44:33;17.70;99.90
5154;DHT22;2595;53.584;10.084;2022-10-16T12:47:01;17.70;99.90
5154;DHT22;2595;53.584;10.084;2022-10-16T12:49:31;17.70;99.90
5154;DHT22;2595;53.584;10.084;2022-10-16T12:51:57;17.60;99.90
5154;DHT22;2595;53.584;10.084;2022-10-16T12:54:43;17.60;99.90
5154;DHT22;2595;53.584;10.084;2022-10-16T13:19:11;17.60;99.90
5154;DHT22;2595;53.584;10.084;2022-10-16T13:24:54;17.50;99.90
5154;DHT22;2595;53.584;10.084;2022-10-16T13:29:54;17.50;99.90
5154;DHT22;2595;53.584;10.084;2022-10-16T13:32:26;17.50;99.90
5154;DHT22;2595;53.584;10.084;2022-10-16T13:34:52;17.50;99.90
5154;DHT22;2595;53.584;10.084;2022-10-16T13:37:21;17.60;99.90
5154;DHT22;2595;53.584;10.084;2022-10-16T13:39:47;17.60;99.90
5154;DHT22;2595;53.584;10.084;2022-10-16T13:42:26;17.60;99.90
5154;DHT22;2595;53.584;10.084;2022-10-16T13:44:53;17.70;99.90
5154;DHT22;2595;53.584;10.084;2022-10-16T13:47:27;17.70;99.90
5154;DHT22;2595;53.584;10.084;2022-10-16T13:50:12;17.70;99.90
5154;DHT22;2595;53.584;10.084;2022-10-16T13:52:38;17.80;99.90
5154;DHT22;2595;53.584;10.084;2022-10-16T13:55:15;17.90;99.90
5154;DHT22;2595;53.584;10.084;2022-10-16T13:57:42;17.90;99.90
5154;DHT22;2595;53.584;10.084;2022-10-16T14:00:24;18.00;99.90
5154;DHT22;2595;53.584;10.084;2022-10-16T14:03:03;18.00;99.90
5154;DHT22;2595;53.584;10.084;2022-10-16T14:05:29;18.10;99.90
5154;DHT22;2595;53.584;10.084;2022-10-16T14:07:55;18.20;99.90
5154;DHT22;2595;53.584;10.084;2022-10-16T14:10:27;18.30;99.90
5154;DHT22;2595;53.584;10.084;2022-10-16T14:13:05;18.30;99.90
5154;DHT22;2595;53.584;10.084;2022-10-16T14:15:34;18.40;99.90
5154;DHT22;2595;53.584;10.084;2022-10-16T14:18:00;18.50;99.90
5154;DHT22;2595;53.584;10.084;2022-10-16T14:20:29;18.50;99.90
5154;DHT22;2595;53.584;10.084;2022-10-16T14:25:45;18.50;99.90
5154;DHT22;2595;53.584;10.084;2022-10-16T14:28:15;18.50;99.90
5154;DHT22;2595;53.584;10.084;2022-10-16T14:30:58;18.50;99.90
5154;DHT22;2595;53.584;10.084;2022-10-16T14:33:32;18.50;99.90
5154;DHT22;2595;53.584;10.084;2022-10-16T14:38:36;18.40;99.90
5154;DHT22;2595;53.584;10.084;2022-10-16T14:41:03;18.40;99.90
5154;DHT22;2595;53.584;10.084;2022-10-16T14:43:36;18.30;99.90
5154;DHT22;2595;53.584;10.084;2022-10-16T14:46:03;18.30;99.90
5154;DHT22;2595;53.584;10.084;2022-10-16T14:48:30;18.20;99.90
5154;DHT22;2595;53.584;10.084;2022-10-16T14:50:56;18.20;99.90
5154;DHT22;2595;53.584;10.084;2022-10-16T14:53:22;18.20;99.90
5154;DHT22;2595;53.584;10.084;2022-10-16T14:55:48;18.10;99.90
5154;DHT22;2595;53.584;10.084;2022-10-16T14:58:19;18.10;99.90
5154;DHT22;2595;53.584;10.084;2022-10-16T15:00:46;18.00;99.90
5154;DHT22;2595;53.584;10.084;2022-10-16T15:03:12;17.90;99.90
5154;DHT22;2595;53.584;10.084;2022-10-16T15:05:37;17.90;99.90
5154;DHT22;2595;53.584;10.084;2022-10-16T15:08:03;17.90;99.90
5154;DHT22;2595;53.584;10.084;2022-10-16T15:10:30;17.80;99.90
5154;DHT22;2595;53.584;10.084;2022-10-16T15:12:58;17.90;99.90
5154;DHT22;2595;53.584;10.084;2022-10-16T15:15:30;17.80;99.90
5154;DHT22;2595;53.584;10.084;2022-10-16T15:17:56;17.80;99.90
5154;DHT22;2595;53.584;10.084;2022-10-16T15:20:27;17.70;99.90
5154;DHT22;2595;53.584;10.084;2022-10-16T15:22:53;17.70;99.90
5154;DHT22;2595;53.584;10.084;2022-10-16T15:25:35;17.70;99.90
5154;DHT22;2595;53.584;10.084;2022-10-16T15:28:04;17.70;99.90
5154;DHT22;2595;53.584;10.084;2022-10-16T15:30:30;17.60;99.90
5154;DHT22;2595;53.584;10.084;2022-10-16T15:32:55;17.60;99.90
5154;DHT22;2595;53.584;10.084;2022-10-16T15:35:21;17.60;99.90
5154;DHT22;2595;53.584;10.084;2022-10-16T15:37:48;17.50;99.90
5154;DHT22;2595;53.584;10.084;2022-10-16T15:40:15;17.50;99.90
5154;DHT22;2595;53.584;10.084;2022-10-16T15:42:40;17.50;99.90
5154;DHT22;2595;53.584;10.084;2022-10-16T15:45:07;17.50;99.90
5154;DHT22;2595;53.584;10.084;2022-10-16T15:47:33;17.40;99.90
5154;DHT22;2595;53.584;10.084;2022-10-16T15:49:59;17.40;99.90
5154;DHT22;2595;53.584;10.084;2022-10-16T15:52:24;17.40;99.90
5154;DHT22;2595;53.584;10.084;2022-10-16T15:54:50;17.40;99.90
5154;DHT22;2595;53.584;10.084;2022-10-16T15:57:16;17.30;99.90
5154;DHT22;2595;53.584;10.084;2022-10-16T15:59:41;17.30;99.90
5154;DHT22;2595;53.584;10.084;2022-10-16T16:02:08;17.30;99.90
5154;DHT22;2595;53.584;10.084;2022-10-16T16:04:34;17.20;99.90
5154;DHT22;2595;53.584;10.084;2022-10-16T16:07:00;17.20;99.90
5154;DHT22;2595;53.584;10.084;2022-10-16T16:09:28;17.20;99.90
5154;DHT22;2595;53.584;10.084;2022-10-16T16:11:54;17.10;99.90
5154;DHT22;2595;53.584;10.084;2022-10-16T16:14:20;17.10;99.90
5154;DHT22;2595;53.584;10.084;2022-10-16T16:16:46;17.10;99.90
5154;DHT22;2595;53.584;10.084;2022-10-16T16:19:11;17.10;99.90
5154;DHT22;2595;53.584;10.084;2022-10-16T16:21:37;17.00;99.90
5154;DHT22;2595;53.584;10.084;2022-10-16T16:24:03;17.00;99.90
5154;DHT22;2595;53.584;10.084;2022-10-16T16:26:35;17.00;99.90
5154;DHT22;2595;53.584;10.084;2022-10-16T16:29:02;17.00;99.90
5154;DHT22;2595;53.584;10.084;2022-10-16T16:31:30;16.90;99.90
5154;DHT22;2595;53.584;10.084;2022-10-16T16:33:56;16.90;99.90
5154;DHT22;2595;53.584;10.084;2022-10-16T16:36:23;16.90;99.90
5154;DHT22;2595;53.584;10.084;2022-10-16T16:38:49;16.90;99.90
5154;DHT22;2595;53.584;10.084;2022-10-16T16:41:18;16.80;99.90
5154;DHT22;2595;53.584;10.084;2022-10-16T16:43:44;16.80;99.90
5154;DHT22;2595;53.584;10.084;2022-10-16T16:46:10;16.80;99.90
5154;DHT22;2595;53.584;10.084;2022-10-16T16:48:35;16.80;99.90
5154;DHT22;2595;53.584;10.084;2022-10-16T16:51:09;16.70;99.90
5154;DHT22;2595;53.584;10.084;2022-10-16T16:53:40;16.70;99.90
5154;DHT22;2595;53.584;10.084;2022-10-16T16:56:06;16.70;99.90
5154;DHT22;2595;53.584;10.084;2022-10-16T16:58:32;16.60;99.90
5154;DHT22;2595;53.584;10.084;2022-10-16T17:00:58;16.60;99.90
5154;DHT22;2595;53.584;10.084;2022-10-16T17:03:30;16.60;99.90
5154;DHT22;2595;53.584;10.084;2022-10-16T17:06:01;16.50;99.90
5154;DHT22;2595;53.584;10.084;2022-10-16T17:08:27;16.50;99.90
5154;DHT22;2595;53.584;10.084;2022-10-16T17:10:53;16.50;99.90
5154;DHT22;2595;53.584;10.084;2022-10-16T17:13:28;16.40;99.90
5154;DHT22;2595;53.584;10.084;2022-10-16T17:15:54;16.40;99.90
5154;DHT22;2595;53.584;10.084;2022-10-16T17:18:21;16.40;99.90
5154;DHT22;2595;53.584;10.084;2022-10-16T17:20:47;16.30;99.90
5154;DHT22;2595;53.584;10.084;2022-10-16T17:23:14;16.30;99.90
5154;DHT22;2595;53.584;10.084;2022-10-16T17:25:41;16.30;99.90
5154;DHT22;2595;53.584;10.084;2022-10-16T17:28:07;16.30;99.90
5154;DHT22;2595;53.584;10.084;2022-10-16T17:30:34;16.20;99.90
5154;DHT22;2595;53.584;10.084;2022-10-16T17:33:00;16.20;99.90
5154;DHT22;2595;53.584;10.084;2022-10-16T17:35:26;16.10;99.90
5154;DHT22;2595;53.584;10.084;2022-10-16T17:37:52;16.10;99.90
5154;DHT22;2595;53.584;10.084;2022-10-16T17:40:18;16.10;99.90
5154;DHT22;2595;53.584;10.084;2022-10-16T17:42:44;16.10;99.90
5154;DHT22;2595;53.584;10.084;2022-10-16T17:45:10;16.00;99.90
5154;DHT22;2595;53.584;10.084;2022-10-16T17:47:36;15.90;99.90
5154;DHT22;2595;53.584;10.084;2022-10-16T17:50:03;15.90;99.90
5154;DHT22;2595;53.584;10.084;2022-10-16T17:52:28;15.90;99.90
5154;DHT22;2595;53.584;10.084;2022-10-16T17:54:54;15.80;99.90
5154;DHT22;2595;53.584;10.084;2022-10-16T17:57:21;15.80;99.90
5154;DHT22;2595;53.584;10.084;2022-10-16T17:59:47;15.70;99.90
5154;DHT22;2595;53.584;10.084;2022-10-16T18:02:12;15.70;99.90
5154;DHT22;2595;53.584;10.084;2022-10-16T18:04:39;15.70;99.90
5154;DHT22;2595;53.584;10.084;2022-10-16T18:07:05;15.60;99.90
5154;DHT22;2595;53.584;10.084;2022-10-16T18:09:31;15.60;99.90
5154;DHT22;2595;53.584;10.084;2022-10-16T18:11:57;15.50;99.90
5154;DHT22;2595;53.584;10.084;2022-10-16T18:14:27;15.50;99.90
5154;DHT22;2595;53.584;10.084;2022-10-16T18:16:54;15.50;99.90